sensor_id;sensor_type;location;lat;lon;timestamp;pressure;altitude;pressure_sealevel;temperature;humidity
49297;BME280;35163;48.878;18.040;2023-06-19T00:01:09;98358.84;;;18.89;66.31
49297;BME280;35163;48.878;18.040;2023-06-19T00:03:36;98352.56;;;18.92;65.91
49297;BME280;35163;48.878;18.040;2023-06-19T00:06:03;98356.84;;;18.93;65.09
49297;BME280;35163;48.878;18.040;2023-06-19T00:08:30;98351.63;;;18.93;63.97
49297;BME280;35163;48.878;18.040;2023-06-19T00:10:57;98354.88;;;18.97;63.46
49297;BME280;35163;48.878;18.040;2023-06-19T00:13:24;98361.66;;;18.86;64.77
49297;BME280;35163;48.878;18.040;2023-06-19T00:15:50;98355.16;;;18.79;64.79
49297;BME280;35163;48.878;18.040;2023-06-19T00:18:17;98360.06;;;18.70;65.06
49297;BME280;35163;48.878;18.040;2023-06-19T00:20:46;98358.31;;;18.71;64.71
49297;BME280;35163;48.878;18.040;2023-06-19T00:23:13;98362.09;;;18.80;64.59
49297;BME280;35163;48.878;18.040;2023-06-19T00:25:43;98357.44;;;18.70;65.01
49297;BME280;35163;48.878;18.040;2023-06-19T00:28:11;98359.13;;;18.72;65.08
49297;BME280;35163;48.878;18.040;2023-06-19T00:30:41;98357.13;;;18.62;65.81
49297;BME280;35163;48.878;18.040;2023-06-19T00:33:07;98360.34;;;18.53;66.28
49297;BME280;35163;48.878;18.040;2023-06-19T00:35:35;98354.75;;;18.44;66.76
49297;BME280;35163;48.878;18.040;2023-06-19T00:38:02;98351.41;;;18.42;66.78
49297;BME280;35163;48.878;18.040;2023-06-19T00:40:32;98354.50;;;18.49;65.79
49297;BME280;35163;48.878;18.040;2023-06-19T00:42:59;98351.88;;;18.49;66.17
49297;BME280;35163;48.878;18.040;2023-06-19T00:45:26;98348.19;;;18.52;65.44
49297;BME280;35163;48.878;18.040;2023-06-19T00:47:55;98339.69;;;18.48;66.10
49297;BME280;35163;48.878;18.040;2023-06-19T00:50:22;98347.13;;;18.41;66.34
49297;BME280;35163;48.878;18.040;2023-06-19T00:52:50;98342.28;;;18.35;66.85
49297;BME280;35163;48.878;18.040;2023-06-19T00:55:17;98340.59;;;18.34;66.97
49297;BME280;35163;48.878;18.040;2023-06-19T00:57:45;98335.56;;;18.31;67.01
49297;BME280;35163;48.878;18.040;2023-06-19T01:00:14;98342.28;;;18.35;66.32
49297;BME280;35163;48.878;18.040;2023-06-19T01:02:41;98332.22;;;18.29;66.23
49297;BME280;35163;48.878;18.040;2023-06-19T01:05:08;98334.69;;;18.17;66.27
49297;BME280;35163;48.878;18.040;2023-06-19T01:10:32;98333.84;;;18.17;66.01
49297;BME280;35163;48.878;18.040;2023-06-19T01:13:28;98331.81;;;18.07;66.54
49297;BME280;35163;48.878;18.040;2023-06-19T01:15:58;98337.13;;;18.06;67.57
49297;BME280;35163;48.878;18.040;2023-06-19T01:18:25;98335.09;;;17.96;67.88
49297;BME280;35163;48.878;18.040;2023-06-19T01:20:53;98334.53;;;17.91;67.89
49297;BME280;35163;48.878;18.040;2023-06-19T01:23:20;98336.97;;;17.94;67.53
49297;BME280;35163;48.878;18.040;2023-06-19T01:25:47;98328.19;;;17.95;66.98
49297;BME280;35163;48.878;18.040;2023-06-19T01:28:14;98334.06;;;17.99;66.91
49297;BME280;35163;48.878;18.040;2023-06-19T01:30:42;98338.44;;;17.98;66.70
49297;BME280;35163;48.878;18.040;2023-06-19T01:33:12;98335.63;;;18.02;66.47
49297;BME280;35163;48.878;18.040;2023-06-19T01:35:42;98337.91;;;17.93;66.89
49297;BME280;35163;48.878;18.040;2023-06-19T01:38:10;98342.94;;;17.96;66.67
49297;BME280;35163;48.878;18.040;2023-06-19T01:40:37;98339.78;;;17.91;67.04
49297;BME280;35163;48.878;18.040;2023-06-19T01:43:05;98339.53;;;17.81;67.31
49297;BME280;35163;48.878;18.040;2023-06-19T01:45:33;98334.94;;;17.85;67.13
49297;BME280;35163;48.878;18.040;2023-06-19T01:48:00;98341.28;;;17.81;66.98
49297;BME280;35163;48.878;18.040;2023-06-19T01:50:27;98339.91;;;17.75;67.42
49297;BME280;35163;48.878;18.040;2023-06-19T01:52:55;98337.56;;;17.70;68.46
49297;BME280;35163;48.878;18.040;2023-06-19T01:55:22;98334.22;;;17.68;68.25
49297;BME280;35163;48.878;18.040;2023-06-19T01:57:49;98337.09;;;17.64;68.48
49297;BME280;35163;48.878;18.040;2023-06-19T02:00:16;98338.16;;;17.61;68.55
49297;BME280;35163;48.878;18.040;2023-06-19T02:02:42;98330.88;;;17.52;69.21
49297;BME280;35163;48.878;18.040;2023-06-19T02:05:10;98338.34;;;17.43;69.25
49297;BME280;35163;48.878;18.040;2023-06-19T02:07:36;98339.84;;;17.47;69.38
49297;BME280;35163;48.878;18.040;2023-06-19T02:10:03;98342.06;;;17.54;68.59
49297;BME280;35163;48.878;18.040;2023-06-19T02:12:31;98341.88;;;17.57;68.17
49297;BME280;35163;48.878;18.040;2023-06-19T02:14:58;98345.25;;;17.59;67.79
49297;BME280;35163;48.878;18.040;2023-06-19T02:17:25;98336.66;;;17.57;67.94
49297;BME280;35163;48.878;18.040;2023-06-19T02:19:51;98340.41;;;17.53;68.20
49297;BME280;35163;48.878;18.040;2023-06-19T02:22:18;98345.44;;;17.41;68.61
49297;BME280;35163;48.878;18.040;2023-06-19T02:24:45;98338.81;;;17.35;68.85
49297;BME280;35163;48.878;18.040;2023-06-19T02:27:12;98338.56;;;17.26;69.26
49297;BME280;35163;48.878;18.040;2023-06-19T02:29:38;98336.66;;;17.28;69.09
49297;BME280;35163;48.878;18.040;2023-06-19T02:32:05;98341.88;;;17.28;69.27
49297;BME280;35163;48.878;18.040;2023-06-19T02:34:32;98339.66;;;17.21;69.59
49297;BME280;35163;48.878;18.040;2023-06-19T02:37:01;98337.53;;;17.14;70.25
49297;BME280;35163;48.878;18.040;2023-06-19T02:39:29;98336.88;;;17.10;69.98
49297;BME280;35163;48.878;18.040;2023-06-19T02:41:58;98336.94;;;17.08;70.26
49297;BME280;35163;48.878;18.040;2023-06-19T02:44:24;98336.59;;;16.98;70.16
49297;BME280;35163;48.878;18.040;2023-06-19T02:46:51;98336.03;;;16.93;70.82
49297;BME280;35163;48.878;18.040;2023-06-19T02:49:18;98341.63;;;16.87;70.74
49297;BME280;35163;48.878;18.040;2023-06-19T02:51:44;98340.22;;;16.81;70.94
49297;BME280;35163;48.878;18.040;2023-06-19T02:54:11;98342.09;;;16.79;71.11
49297;BME280;35163;48.878;18.040;2023-06-19T02:56:38;98347.56;;;16.74;71.25
49297;BME280;35163;48.878;18.040;2023-06-19T02:59:05;98353.91;;;16.70;71.67
49297;BME280;35163;48.878;18.040;2023-06-19T03:01:32;98351.56;;;16.66;71.50
49297;BME280;35163;48.878;18.040;2023-06-19T03:04:00;98350.53;;;16.68;71.85
49297;BME280;35163;48.878;18.040;2023-06-19T03:06:27;98352.75;;;16.60;72.31
49297;BME280;35163;48.878;18.040;2023-06-19T03:08:54;98354.81;;;16.69;71.80
49297;BME280;35163;48.878;18.040;2023-06-19T03:11:21;98350.00;;;16.77;71.00
49297;BME280;35163;48.878;18.040;2023-06-19T03:13:53;98350.50;;;16.84;70.33
49297;BME280;35163;48.878;18.040;2023-06-19T03:16:20;98350.66;;;16.81;70.33
49297;BME280;35163;48.878;18.040;2023-06-19T03:18:47;98348.16;;;16.80;70.55
49297;BME280;35163;48.878;18.040;2023-06-19T03:21:18;98350.19;;;16.74;70.84
49297;BME280;35163;48.878;18.040;2023-06-19T03:23:46;98352.22;;;16.69;70.91
49297;BME280;35163;48.878;18.040;2023-06-19T03:26:13;98342.44;;;16.73;70.93
49297;BME280;35163;48.878;18.040;2023-06-19T03:28:39;98349.78;;;16.66;70.81
49297;BME280;35163;48.878;18.040;2023-06-19T03:31:06;98350.72;;;16.65;71.48
49297;BME280;35163;48.878;18.040;2023-06-19T03:33:33;98360.69;;;16.58;71.93
49297;BME280;35163;48.878;18.040;2023-06-19T03:36:00;98358.16;;;16.57;71.92
49297;BME280;35163;48.878;18.040;2023-06-19T03:38:26;98361.34;;;16.62;71.47
49297;BME280;35163;48.878;18.040;2023-06-19T03:40:53;98363.38;;;16.57;72.08
49297;BME280;35163;48.878;18.040;2023-06-19T03:43:20;98361.59;;;16.57;71.74
49297;BME280;35163;48.878;18.040;2023-06-19T03:45:46;98351.16;;;16.57;71.73
49297;BME280;35163;48.878;18.040;2023-06-19T03:48:13;98349.91;;;16.48;72.22
49297;BME280;35163;48.878;18.040;2023-06-19T03:50:40;98357.00;;;16.46;72.60
49297;BME280;35163;48.878;18.040;2023-06-19T03:53:09;98347.25;;;16.50;72.13
49297;BME280;35163;48.878;18.040;2023-06-19T03:55:36;98350.56;;;16.52;72.21
49297;BME280;35163;48.878;18.040;2023-06-19T03:58:03;98349.75;;;16.51;72.62
49297;BME280;35163;48.878;18.040;2023-06-19T04:00:30;98358.50;;;16.50;72.53
49297;BME280;35163;48.878;18.040;2023-06-19T04:02:56;98359.25;;;16.52;72.48
49297;BME280;35163;48.878;18.040;2023-06-19T04:05:23;98359.94;;;16.56;72.23
49297;BME280;35163;48.878;18.040;2023-06-19T04:07:51;98364.47;;;16.52;72.45
49297;BME280;35163;48.878;18.040;2023-06-19T04:10:17;98355.72;;;16.54;72.54
49297;BME280;35163;48.878;18.040;2023-06-19T04:12:44;98352.66;;;16.61;71.96
49297;BME280;35163;48.878;18.040;2023-06-19T04:15:12;98350.16;;;16.60;71.68
49297;BME280;35163;48.878;18.040;2023-06-19T04:17:38;98361.16;;;16.65;71.61
49297;BME280;35163;48.878;18.040;2023-06-19T04:20:06;98367.16;;;16.67;71.54
49297;BME280;35163;48.878;18.040;2023-06-19T04:22:39;98363.69;;;16.67;71.56
49297;BME280;35163;48.878;18.040;2023-06-19T04:25:10;98366.03;;;16.71;71.72
49297;BME280;35163;48.878;18.040;2023-06-19T04:27:39;98361.47;;;16.75;71.61
49297;BME280;35163;48.878;18.040;2023-06-19T04:30:06;98364.94;;;16.75;71.86
49297;BME280;35163;48.878;18.040;2023-06-19T04:32:34;98365.03;;;16.74;71.84
49297;BME280;35163;48.878;18.040;2023-06-19T04:35:08;98363.13;;;16.76;71.73
49297;BME280;35163;48.878;18.040;2023-06-19T04:37:35;98368.03;;;16.82;71.74
49297;BME280;35163;48.878;18.040;2023-06-19T04:40:02;98368.69;;;16.86;70.49
49297;BME280;35163;48.878;18.040;2023-06-19T04:42:31;98368.69;;;16.86;70.75
49297;BME280;35163;48.878;18.040;2023-06-19T04:44:57;98363.09;;;16.92;70.89
49297;BME280;35163;48.878;18.040;2023-06-19T04:47:26;98368.03;;;16.97;70.28
49297;BME280;35163;48.878;18.040;2023-06-19T04:50:07;98374.31;;;17.09;70.49
49297;BME280;35163;48.878;18.040;2023-06-19T04:52:34;98375.28;;;17.22;70.40
49297;BME280;35163;48.878;18.040;2023-06-19T04:55:07;98375.13;;;17.40;70.43
49297;BME280;35163;48.878;18.040;2023-06-19T04:57:37;98370.28;;;17.63;69.72
49297;BME280;35163;48.878;18.040;2023-06-19T05:00:06;98365.38;;;17.86;68.51
49297;BME280;35163;48.878;18.040;2023-06-19T05:02:33;98380.28;;;18.13;67.25
49297;BME280;35163;48.878;18.040;2023-06-19T05:05:01;98374.44;;;18.37;65.73
49297;BME280;35163;48.878;18.040;2023-06-19T05:07:30;98386.34;;;18.56;65.73
49297;BME280;35163;48.878;18.040;2023-06-19T05:09:58;98383.03;;;18.80;65.36
49297;BME280;35163;48.878;18.040;2023-06-19T05:12:27;98380.53;;;19.04;64.77
49297;BME280;35163;48.878;18.040;2023-06-19T05:14:54;98377.88;;;19.32;64.01
49297;BME280;35163;48.878;18.040;2023-06-19T05:17:20;98379.50;;;19.59;62.88
49297;BME280;35163;48.878;18.040;2023-06-19T05:19:48;98386.81;;;19.80;62.11
49297;BME280;35163;48.878;18.040;2023-06-19T05:22:14;98380.06;;;20.15;61.88
49297;BME280;35163;48.878;18.040;2023-06-19T05:24:41;98385.13;;;20.54;59.43
49297;BME280;35163;48.878;18.040;2023-06-19T05:27:08;98391.28;;;21.02;57.69
49297;BME280;35163;48.878;18.040;2023-06-19T05:29:35;98399.50;;;21.56;55.10
49297;BME280;35163;48.878;18.040;2023-06-19T05:32:02;98393.72;;;22.08;53.75
49297;BME280;35163;48.878;18.040;2023-06-19T05:34:29;98394.88;;;22.72;51.16
49297;BME280;35163;48.878;18.040;2023-06-19T05:36:56;98396.66;;;23.14;49.05
49297;BME280;35163;48.878;18.040;2023-06-19T05:39:23;98389.75;;;23.75;48.94
49297;BME280;35163;48.878;18.040;2023-06-19T05:41:49;98397.00;;;24.24;46.60
49297;BME280;35163;48.878;18.040;2023-06-19T05:44:16;98395.19;;;24.74;45.36
49297;BME280;35163;48.878;18.040;2023-06-19T05:46:47;98384.28;;;25.17;44.04
49297;BME280;35163;48.878;18.040;2023-06-19T05:49:13;98384.25;;;25.75;43.30
49297;BME280;35163;48.878;18.040;2023-06-19T05:51:40;98390.28;;;26.14;42.71
49297;BME280;35163;48.878;18.040;2023-06-19T05:54:07;98388.69;;;26.03;41.46
49297;BME280;35163;48.878;18.040;2023-06-19T05:56:33;98387.00;;;25.83;40.31
49297;BME280;35163;48.878;18.040;2023-06-19T05:59:00;98385.59;;;25.51;40.99
49297;BME280;35163;48.878;18.040;2023-06-19T06:01:28;98387.97;;;25.44;42.14
49297;BME280;35163;48.878;18.040;2023-06-19T06:03:56;98398.13;;;25.49;42.56
49297;BME280;35163;48.878;18.040;2023-06-19T06:06:23;98390.09;;;25.41;42.44
49297;BME280;35163;48.878;18.040;2023-06-19T06:08:50;98395.25;;;25.32;42.67
49297;BME280;35163;48.878;18.040;2023-06-19T06:11:18;98395.56;;;25.19;42.25
49297;BME280;35163;48.878;18.040;2023-06-19T06:13:44;98392.69;;;25.03;42.78
49297;BME280;35163;48.878;18.040;2023-06-19T06:16:11;98407.28;;;24.87;43.14
49297;BME280;35163;48.878;18.040;2023-06-19T06:18:38;98406.47;;;24.76;43.07
49297;BME280;35163;48.878;18.040;2023-06-19T06:21:05;98406.91;;;24.62;43.80
49297;BME280;35163;48.878;18.040;2023-06-19T06:23:31;98407.72;;;24.72;44.08
49297;BME280;35163;48.878;18.040;2023-06-19T06:25:58;98410.91;;;24.76;44.17
49297;BME280;35163;48.878;18.040;2023-06-19T06:28:29;98408.16;;;24.78;44.87
49297;BME280;35163;48.878;18.040;2023-06-19T06:30:56;98409.94;;;24.67;44.30
49297;BME280;35163;48.878;18.040;2023-06-19T06:33:23;98405.06;;;24.62;44.85
49297;BME280;35163;48.878;18.040;2023-06-19T06:35:54;98417.88;;;24.67;44.30
49297;BME280;35163;48.878;18.040;2023-06-19T06:38:21;98418.56;;;24.79;45.06
49297;BME280;35163;48.878;18.040;2023-06-19T06:40:48;98418.56;;;24.79;44.42
49297;BME280;35163;48.878;18.040;2023-06-19T06:43:15;98423.72;;;24.81;44.81
49297;BME280;35163;48.878;18.040;2023-06-19T06:45:41;98424.41;;;24.83;44.77
49297;BME280;35163;48.878;18.040;2023-06-19T06:48:09;98417.56;;;24.90;44.92
49297;BME280;35163;48.878;18.040;2023-06-19T06:50:36;98426.66;;;24.78;44.43
49297;BME280;35163;48.878;18.040;2023-06-19T06:53:03;98433.44;;;24.50;43.39
49297;BME280;35163;48.878;18.040;2023-06-19T06:55:29;98430.66;;;24.42;44.28
49297;BME280;35163;48.878;18.040;2023-06-19T06:57:56;98435.81;;;24.54;44.38
49297;BME280;35163;48.878;18.040;2023-06-19T07:00:23;98440.81;;;24.57;44.49
49297;BME280;35163;48.878;18.040;2023-06-19T07:02:50;98438.03;;;24.48;44.83
49297;BME280;35163;48.878;18.040;2023-06-19T07:05:17;98434.13;;;24.52;44.54
49297;BME280;35163;48.878;18.040;2023-06-19T07:07:44;98439.41;;;24.43;43.84
49297;BME280;35163;48.878;18.040;2023-06-19T07:10:14;98431.91;;;24.48;44.61
49297;BME280;35163;48.878;18.040;2023-06-19T07:12:48;98438.56;;;24.52;44.50
49297;BME280;35163;48.878;18.040;2023-06-19T07:15:15;98441.09;;;24.54;44.68
49297;BME280;35163;48.878;18.040;2023-06-19T07:17:43;98438.19;;;24.67;44.98
49297;BME280;35163;48.878;18.040;2023-06-19T07:20:11;98439.13;;;24.46;43.63
49297;BME280;35163;48.878;18.040;2023-06-19T07:22:40;98439.97;;;24.46;43.65
49297;BME280;35163;48.878;18.040;2023-06-19T07:25:11;98433.59;;;24.59;44.13
49297;BME280;35163;48.878;18.040;2023-06-19T07:27:40;98434.03;;;24.74;44.45
49297;BME280;35163;48.878;18.040;2023-06-19T07:30:07;98433.59;;;24.79;44.34
49297;BME280;35163;48.878;18.040;2023-06-19T07:32:34;98435.16;;;24.91;44.36
49297;BME280;35163;48.878;18.040;2023-06-19T07:35:01;98438.19;;;25.06;44.27
49297;BME280;35163;48.878;18.040;2023-06-19T07:37:27;98441.78;;;25.05;43.07
49297;BME280;35163;48.878;18.040;2023-06-19T07:39:54;98445.53;;;25.22;43.46
49297;BME280;35163;48.878;18.040;2023-06-19T07:42:22;98439.84;;;25.27;42.88
49297;BME280;35163;48.878;18.040;2023-06-19T07:44:49;98447.16;;;25.43;43.66
49297;BME280;35163;48.878;18.040;2023-06-19T07:47:16;98441.56;;;25.56;43.87
49297;BME280;35163;48.878;18.040;2023-06-19T07:49:46;98446.56;;;25.69;43.41
49297;BME280;35163;48.878;18.040;2023-06-19T07:52:13;98441.50;;;25.76;42.85
49297;BME280;35163;48.878;18.040;2023-06-19T07:55:09;98444.75;;;25.70;42.69
49297;BME280;35163;48.878;18.040;2023-06-19T07:57:36;98438.72;;;25.78;43.54
49297;BME280;35163;48.878;18.040;2023-06-19T08:00:06;98445.00;;;25.77;43.07
49297;BME280;35163;48.878;18.040;2023-06-19T08:02:39;98445.41;;;25.82;43.50
49297;BME280;35163;48.878;18.040;2023-06-19T08:05:07;98447.91;;;25.83;43.22
49297;BME280;35163;48.878;18.040;2023-06-19T08:07:35;98450.53;;;25.83;43.41
49297;BME280;35163;48.878;18.040;2023-06-19T08:10:02;98445.09;;;25.85;43.85
49297;BME280;35163;48.878;18.040;2023-06-19T08:12:43;98453.44;;;25.90;44.01
49297;BME280;35163;48.878;18.040;2023-06-19T08:15:11;98444.47;;;26.01;43.81
49297;BME280;35163;48.878;18.040;2023-06-19T08:17:38;98444.41;;;26.11;43.49
49297;BME280;35163;48.878;18.040;2023-06-19T08:20:05;98445.19;;;26.21;43.85
49297;BME280;35163;48.878;18.040;2023-06-19T08:22:33;98439.44;;;26.26;43.58
49297;BME280;35163;48.878;18.040;2023-06-19T08:25:00;98437.91;;;26.33;44.26
49297;BME280;35163;48.878;18.040;2023-06-19T08:27:27;98438.81;;;26.42;43.18
49297;BME280;35163;48.878;18.040;2023-06-19T08:29:53;98439.59;;;26.53;43.37
49297;BME280;35163;48.878;18.040;2023-06-19T08:32:20;98438.66;;;26.62;43.26
49297;BME280;35163;48.878;18.040;2023-06-19T08:34:47;98440.25;;;26.73;43.45
49297;BME280;35163;48.878;18.040;2023-06-19T08:37:14;98433.59;;;26.69;41.49
49297;BME280;35163;48.878;18.040;2023-06-19T08:39:40;98424.50;;;26.72;41.09
49297;BME280;35163;48.878;18.040;2023-06-19T08:42:08;98430.03;;;26.78;41.18
49297;BME280;35163;48.878;18.040;2023-06-19T08:44:36;98429.25;;;26.86;41.85
49297;BME280;35163;48.878;18.040;2023-06-19T08:47:05;98431.28;;;26.92;42.47
49297;BME280;35163;48.878;18.040;2023-06-19T08:49:34;98433.03;;;27.02;42.32
49297;BME280;35163;48.878;18.040;2023-06-19T08:52:02;98440.22;;;27.10;42.98
49297;BME280;35163;48.878;18.040;2023-06-19T08:54:30;98431.97;;;27.13;42.42
49297;BME280;35163;48.878;18.040;2023-06-19T08:57:03;98432.72;;;27.23;43.92
49297;BME280;35163;48.878;18.040;2023-06-19T08:59:30;98426.63;;;27.31;43.25
49297;BME280;35163;48.878;18.040;2023-06-19T09:02:01;98418.00;;;27.37;44.14
49297;BME280;35163;48.878;18.040;2023-06-19T09:04:29;98418.72;;;27.48;42.78
49297;BME280;35163;48.878;18.040;2023-06-19T09:06:59;98409.13;;;27.47;41.28
49297;BME280;35163;48.878;18.040;2023-06-19T09:09:27;98420.56;;;27.47;41.16
49297;BME280;35163;48.878;18.040;2023-06-19T09:12:03;98409.16;;;27.55;43.43
49297;BME280;35163;48.878;18.040;2023-06-19T09:14:34;98409.50;;;27.60;41.71
49297;BME280;35163;48.878;18.040;2023-06-19T09:17:02;98418.50;;;27.68;41.94
49297;BME280;35163;48.878;18.040;2023-06-19T09:19:30;98409.25;;;27.72;40.83
49297;BME280;35163;48.878;18.040;2023-06-19T09:22:03;98404.97;;;27.79;42.89
49297;BME280;35163;48.878;18.040;2023-06-19T09:24:36;98411.47;;;27.85;41.92
49297;BME280;35163;48.878;18.040;2023-06-19T09:27:11;98412.13;;;27.87;39.38
49297;BME280;35163;48.878;18.040;2023-06-19T09:29:41;98411.66;;;27.92;38.84
49297;BME280;35163;48.878;18.040;2023-06-19T09:32:29;98404.38;;;27.94;37.52
49297;BME280;35163;48.878;18.040;2023-06-19T09:34:57;98412.66;;;27.99;39.14
49297;BME280;35163;48.878;18.040;2023-06-19T09:37:28;98400.41;;;28.06;38.75
49297;BME280;35163;48.878;18.040;2023-06-19T09:40:01;98405.09;;;28.12;38.32
49297;BME280;35163;48.878;18.040;2023-06-19T09:42:38;98410.88;;;28.16;38.63
49297;BME280;35163;48.878;18.040;2023-06-19T09:45:07;98404.09;;;28.22;37.82
49297;BME280;35163;48.878;18.040;2023-06-19T09:47:38;98406.06;;;28.20;37.54
49297;BME280;35163;48.878;18.040;2023-06-19T09:52:34;98399.97;;;28.27;36.93
49297;BME280;35163;48.878;18.040;2023-06-19T09:55:03;98407.44;;;28.32;38.66
49297;BME280;35163;48.878;18.040;2023-06-19T09:57:31;98405.31;;;28.36;37.25
49297;BME280;35163;48.878;18.040;2023-06-19T09:59:59;98401.31;;;28.40;38.74
49297;BME280;35163;48.878;18.040;2023-06-19T10:02:36;98402.16;;;28.41;37.69
49297;BME280;35163;48.878;18.040;2023-06-19T10:05:03;98402.00;;;28.42;38.61
49297;BME280;35163;48.878;18.040;2023-06-19T10:07:34;98397.19;;;28.46;37.90
49297;BME280;35163;48.878;18.040;2023-06-19T10:10:08;98396.03;;;28.48;38.30
49297;BME280;35163;48.878;18.040;2023-06-19T10:12:43;98401.19;;;28.50;36.13
49297;BME280;35163;48.878;18.040;2023-06-19T10:15:21;98394.69;;;28.53;36.23
49297;BME280;35163;48.878;18.040;2023-06-19T10:17:50;98393.88;;;28.52;36.96
49297;BME280;35163;48.878;18.040;2023-06-19T10:20:38;98396.38;;;28.54;36.75
49297;BME280;35163;48.878;18.040;2023-06-19T10:23:22;98391.88;;;28.54;36.33
49297;BME280;35163;48.878;18.040;2023-06-19T10:25:59;98393.22;;;28.58;36.10
49297;BME280;35163;48.878;18.040;2023-06-19T10:28:32;98388.22;;;28.55;36.06
49297;BME280;35163;48.878;18.040;2023-06-19T10:30:59;98381.91;;;28.56;37.33
49297;BME280;35163;48.878;18.040;2023-06-19T10:33:31;98387.88;;;28.58;36.87
49297;BME280;35163;48.878;18.040;2023-06-19T10:36:20;98388.72;;;28.59;35.91
49297;BME280;35163;48.878;18.040;2023-06-19T10:38:48;98390.38;;;28.60;35.57
49297;BME280;35163;48.878;18.040;2023-06-19T10:44:13;98379.41;;;28.63;35.54
49297;BME280;35163;48.878;18.040;2023-06-19T10:46:40;98379.41;;;28.63;36.57
49297;BME280;35163;48.878;18.040;2023-06-19T10:49:08;98388.22;;;28.63;36.34
49297;BME280;35163;48.878;18.040;2023-06-19T10:51:39;98384.72;;;28.63;36.56
49297;BME280;35163;48.878;18.040;2023-06-19T10:54:08;98383.56;;;28.66;36.05
49297;BME280;35163;48.878;18.040;2023-06-19T10:56:35;98380.91;;;28.66;34.89
49297;BME280;35163;48.878;18.040;2023-06-19T10:59:08;98379.91;;;28.67;35.76
49297;BME280;35163;48.878;18.040;2023-06-19T11:01:45;98385.22;;;28.67;35.54
49297;BME280;35163;48.878;18.040;2023-06-19T11:04:14;98381.56;;;28.68;37.90
49297;BME280;35163;48.878;18.040;2023-06-19T11:06:43;98381.72;;;28.66;37.38
49297;BME280;35163;48.878;18.040;2023-06-19T11:09:11;98379.91;;;28.67;37.42
49297;BME280;35163;48.878;18.040;2023-06-19T11:11:46;98378.91;;;28.68;36.27
49297;BME280;35163;48.878;18.040;2023-06-19T11:14:15;98373.75;;;28.66;36.05
49297;BME280;35163;48.878;18.040;2023-06-19T11:16:46;98369.28;;;28.67;35.54
49297;BME280;35163;48.878;18.040;2023-06-19T11:19:16;98366.63;;;28.67;35.72
49297;BME280;35163;48.878;18.040;2023-06-19T11:21:51;98367.13;;;28.70;37.09
49297;BME280;35163;48.878;18.040;2023-06-19T11:24:19;98367.78;;;28.72;37.74
49297;BME280;35163;48.878;18.040;2023-06-19T11:26:48;98362.97;;;28.76;36.18
49297;BME280;35163;48.878;18.040;2023-06-19T11:29:20;98361.13;;;28.77;34.88
49297;BME280;35163;48.878;18.040;2023-06-19T11:31:49;98357.31;;;28.79;36.45
49297;BME280;35163;48.878;18.040;2023-06-19T11:34:17;98358.44;;;28.85;35.81
49297;BME280;35163;48.878;18.040;2023-06-19T11:36:47;98351.97;;;28.87;37.30
49297;BME280;35163;48.878;18.040;2023-06-19T11:39:15;98355.94;;;28.92;37.10
49297;BME280;35163;48.878;18.040;2023-06-19T11:41:45;98344.13;;;28.94;36.54
49297;BME280;35163;48.878;18.040;2023-06-19T11:44:12;98357.63;;;28.93;35.08
49297;BME280;35163;48.878;18.040;2023-06-19T11:46:39;98355.94;;;28.92;36.37
49297;BME280;35163;48.878;18.040;2023-06-19T11:49:13;98360.09;;;28.94;35.72
49297;BME280;35163;48.878;18.040;2023-06-19T11:51:40;98340.47;;;28.95;35.04
49297;BME280;35163;48.878;18.040;2023-06-19T11:54:09;98355.44;;;28.96;35.63
49297;BME280;35163;48.878;18.040;2023-06-19T11:56:39;98349.66;;;29.01;36.62
49297;BME280;35163;48.878;18.040;2023-06-19T11:59:06;98347.66;;;29.03;35.85
49297;BME280;35163;48.878;18.040;2023-06-19T12:01:34;98344.66;;;29.06;36.81
49297;BME280;35163;48.878;18.040;2023-06-19T12:04:01;98339.16;;;29.08;37.60
49297;BME280;35163;48.878;18.040;2023-06-19T12:06:29;98350.28;;;29.11;35.99
49297;BME280;35163;48.878;18.040;2023-06-19T12:08:56;98342.97;;;29.14;36.46
49297;BME280;35163;48.878;18.040;2023-06-19T12:11:23;98345.47;;;29.15;37.33
49297;BME280;35163;48.878;18.040;2023-06-19T12:13:51;98338.47;;;29.14;35.49
49297;BME280;35163;48.878;18.040;2023-06-19T12:16:19;98347.09;;;29.16;36.34
49297;BME280;35163;48.878;18.040;2023-06-19T12:18:46;98336.28;;;29.18;37.15
49297;BME280;35163;48.878;18.040;2023-06-19T12:21:13;98338.13;;;29.17;36.42
49297;BME280;35163;48.878;18.040;2023-06-19T12:24:00;98336.47;;;29.16;36.95
49297;BME280;35163;48.878;18.040;2023-06-19T12:26:29;98344.63;;;29.15;35.31
49297;BME280;35163;48.878;18.040;2023-06-19T12:28:58;98340.00;;;29.08;35.03
49297;BME280;35163;48.878;18.040;2023-06-19T12:31:24;98339.50;;;29.05;33.78
49297;BME280;35163;48.878;18.040;2023-06-19T12:33:51;98334.34;;;29.03;33.30
49297;BME280;35163;48.878;18.040;2023-06-19T12:36:18;98325.88;;;28.99;34.68
49297;BME280;35163;48.878;18.040;2023-06-19T12:38:45;98333.34;;;29.04;33.13
49297;BME280;35163;48.878;18.040;2023-06-19T12:41:13;98329.69;;;29.05;33.63
49297;BME280;35163;48.878;18.040;2023-06-19T12:43:40;98319.50;;;29.09;34.79
49297;BME280;35163;48.878;18.040;2023-06-19T12:46:07;98317.34;;;29.13;36.43
49297;BME280;35163;48.878;18.040;2023-06-19T12:48:33;98314.00;;;29.19;34.76
49297;BME280;35163;48.878;18.040;2023-06-19T12:51:00;98312.16;;;29.19;34.78
49297;BME280;35163;48.878;18.040;2023-06-19T12:53:29;98308.34;;;29.22;35.54
49297;BME280;35163;48.878;18.040;2023-06-19T12:55:59;98301.66;;;29.26;35.47
49297;BME280;35163;48.878;18.040;2023-06-19T12:58:31;98301.97;;;29.31;34.90
49297;BME280;35163;48.878;18.040;2023-06-19T13:00:58;98296.31;;;29.34;34.20
49297;BME280;35163;48.878;18.040;2023-06-19T13:03:25;98307.44;;;29.38;34.47
49297;BME280;35163;48.878;18.040;2023-06-19T13:05:52;98301.28;;;29.38;35.00